sensor_id;sensor_type;location;lat;lon;timestamp;pressure;altitude;pressure_sealevel;temperature;humidity
33795;BME280;51430;52.242;21.118;2022-12-07T00:01:37;99620.59;;;2.68;100.00
33795;BME280;51430;52.242;21.118;2022-12-07T00:04:25;99622.38;;;2.57;100.00
33795;BME280;51430;52.242;21.118;2022-12-07T00:07:11;99618.95;;;2.60;100.00
33795;BME280;51430;52.242;21.118;2022-12-07T00:09:58;99618.27;;;2.54;100.00
33795;BME280;51430;52.242;21.118;2022-12-07T00:12:45;99610.74;;;2.53;100.00
33795;BME280;51430;52.242;21.118;2022-12-07T00:15:33;99608.05;;;2.55;100.00
33795;BME280;51430;52.242;21.118;2022-12-07T00:18:20;99609.02;;;2.41;100.00
33795;BME280;51430;52.242;21.118;2022-12-07T00:21:10;99604.10;;;2.52;100.00
33795;BME280;51430;52.242;21.118;2022-12-07T00:23:57;99596.38;;;2.60;100.00
33795;BME280;51430;52.242;21.118;2022-12-07T00:26:43;99592.91;;;2.64;100.00
33795;BME280;51430;52.242;21.118;2022-12-07T00:29:31;99590.31;;;2.67;100.00
33795;BME280;51430;52.242;21.118;2022-12-07T00:32:17;99590.09;;;2.68;100.00
33795;BME280;51430;52.242;21.118;2022-12-07T00:35:03;99591.63;;;2.69;100.00
33795;BME280;51430;52.242;21.118;2022-12-07T00:37:50;99592.27;;;2.72;100.00
33795;BME280;51430;52.242;21.118;2022-12-07T00:40:37;99590.63;;;2.71;100.00
33795;BME280;51430;52.242;21.118;2022-12-07T00:43:24;99588.70;;;2.75;100.00
33795;BME280;51430;52.242;21.118;2022-12-07T00:46:11;99588.69;;;2.75;100.00
33795;BME280;51430;52.242;21.118;2022-12-07T00:48:58;99590.30;;;2.77;100.00
33795;BME280;51430;52.242;21.118;2022-12-07T00:51:48;99586.58;;;2.85;100.00
33795;BME280;51430;52.242;21.118;2022-12-07T00:54:35;99587.52;;;2.86;100.00
33795;BME280;51430;52.242;21.118;2022-12-07T00:57:21;99588.21;;;2.89;100.00
33795;BME280;51430;52.242;21.118;2022-12-07T01:00:08;99588.29;;;2.91;100.00
33795;BME280;51430;52.242;21.118;2022-12-07T01:02:55;99585.55;;;2.91;100.00
33795;BME280;51430;52.242;21.118;2022-12-07T01:08:35;99588.14;;;2.78;100.00
33795;BME280;51430;52.242;21.118;2022-12-07T01:11:24;99587.03;;;2.61;100.00
33795;BME280;51430;52.242;21.118;2022-12-07T01:14:11;99583.63;;;2.52;100.00
33795;BME280;51430;52.242;21.118;2022-12-07T01:16:58;99581.95;;;2.42;100.00
33795;BME280;51430;52.242;21.118;2022-12-07T01:19:44;99582.86;;;2.41;100.00
33795;BME280;51430;52.242;21.118;2022-12-07T01:22:31;99584.10;;;2.47;100.00
33795;BME280;51430;52.242;21.118;2022-12-07T01:25:17;99584.20;;;2.48;100.00
33795;BME280;51430;52.242;21.118;2022-12-07T01:28:04;99587.63;;;2.36;100.00
33795;BME280;51430;52.242;21.118;2022-12-07T01:31:03;99587.36;;;2.37;100.00
33795;BME280;51430;52.242;21.118;2022-12-07T01:33:56;99587.19;;;2.22;100.00
33795;BME280;51430;52.242;21.118;2022-12-07T01:36:43;99586.73;;;2.14;100.00
33795;BME280;51430;52.242;21.118;2022-12-07T01:39:30;99587.52;;;2.25;100.00
33795;BME280;51430;52.242;21.118;2022-12-07T01:42:18;99585.95;;;2.32;100.00
33795;BME280;51430;52.242;21.118;2022-12-07T01:45:39;99578.13;;;2.34;100.00
33795;BME280;51430;52.242;21.118;2022-12-07T01:48:39;99579.66;;;2.27;100.00
33795;BME280;51430;52.242;21.118;2022-12-07T01:51:28;99581.18;;;2.25;100.00
33795;BME280;51430;52.242;21.118;2022-12-07T01:54:17;99576.33;;;2.29;100.00
33795;BME280;51430;52.242;21.118;2022-12-07T01:57:08;99576.04;;;2.31;100.00
33795;BME280;51430;52.242;21.118;2022-12-07T01:59:56;99577.11;;;2.36;100.00
33795;BME280;51430;52.242;21.118;2022-12-07T02:02:50;99567.39;;;2.41;100.00
33795;BME280;51430;52.242;21.118;2022-12-07T02:05:40;99562.31;;;2.55;100.00
33795;BME280;51430;52.242;21.118;2022-12-07T02:08:27;99563.77;;;2.65;100.00
33795;BME280;51430;52.242;21.118;2022-12-07T02:11:14;99565.49;;;2.74;100.00
33795;BME280;51430;52.242;21.118;2022-12-07T02:14:02;99565.67;;;2.77;100.00
33795;BME280;51430;52.242;21.118;2022-12-07T02:17:13;99564.52;;;2.82;100.00
33795;BME280;51430;52.242;21.118;2022-12-07T02:20:28;99563.42;;;2.84;100.00
33795;BME280;51430;52.242;21.118;2022-12-07T02:23:40;99558.91;;;2.87;100.00
33795;BME280;51430;52.242;21.118;2022-12-07T02:32:56;99547.92;;;2.89;100.00
33795;BME280;51430;52.242;21.118;2022-12-07T02:35:56;99543.97;;;2.89;100.00
33795;BME280;51430;52.242;21.118;2022-12-07T02:38:55;99543.52;;;2.88;100.00
33795;BME280;51430;52.242;21.118;2022-12-07T02:41:53;99539.55;;;2.94;100.00
33795;BME280;51430;52.242;21.118;2022-12-07T02:44:42;99544.21;;;2.97;100.00
33795;BME280;51430;52.242;21.118;2022-12-07T02:47:29;99544.30;;;3.02;100.00
33795;BME280;51430;52.242;21.118;2022-12-07T02:50:20;99540.58;;;3.06;100.00
33795;BME280;51430;52.242;21.118;2022-12-07T03:02:51;99527.41;;;3.01;100.00
33795;BME280;51430;52.242;21.118;2022-12-07T03:05:59;99527.08;;;2.99;100.00
33795;BME280;51430;52.242;21.118;2022-12-07T03:12:12;99527.23;;;2.90;100.00
33795;BME280;51430;52.242;21.118;2022-12-07T03:15:18;99527.42;;;2.87;100.00
33795;BME280;51430;52.242;21.118;2022-12-07T03:18:09;99526.60;;;2.86;100.00
33795;BME280;51430;52.242;21.118;2022-12-07T03:21:02;99525.23;;;2.83;100.00
33795;BME280;51430;52.242;21.118;2022-12-07T03:27:31;99528.27;;;2.81;100.00
33795;BME280;51430;52.242;21.118;2022-12-07T03:30:20;99524.33;;;2.87;100.00
33795;BME280;51430;52.242;21.118;2022-12-07T03:33:17;99523.96;;;2.84;100.00
33795;BME280;51430;52.242;21.118;2022-12-07T03:36:25;99523.14;;;2.89;100.00
33795;BME280;51430;52.242;21.118;2022-12-07T03:42:11;99514.39;;;3.03;100.00
33795;BME280;51430;52.242;21.118;2022-12-07T03:44:58;99513.40;;;2.91;100.00
33795;BME280;51430;52.242;21.118;2022-12-07T03:51:26;99508.21;;;2.82;100.00
33795;BME280;51430;52.242;21.118;2022-12-07T03:54:19;99507.23;;;2.76;100.00
33795;BME280;51430;52.242;21.118;2022-12-07T03:57:09;99504.68;;;2.75;100.00
33795;BME280;51430;52.242;21.118;2022-12-07T03:59:57;99501.21;;;2.73;100.00
33795;BME280;51430;52.242;21.118;2022-12-07T04:02:44;99497.50;;;2.66;100.00
33795;BME280;51430;52.242;21.118;2022-12-07T04:05:31;99498.05;;;2.62;100.00
33795;BME280;51430;52.242;21.118;2022-12-07T04:08:17;99498.90;;;2.65;100.00
33795;BME280;51430;52.242;21.118;2022-12-07T04:11:04;99497.13;;;2.63;100.00
33795;BME280;51430;52.242;21.118;2022-12-07T04:13:51;99502.59;;;2.55;100.00
33795;BME280;51430;52.242;21.118;2022-12-07T04:16:57;99499.50;;;2.49;100.00
33795;BME280;51430;52.242;21.118;2022-12-07T04:19:44;99503.79;;;2.47;100.00
33795;BME280;51430;52.242;21.118;2022-12-07T04:22:31;99502.14;;;2.48;100.00
33795;BME280;51430;52.242;21.118;2022-12-07T04:25:17;99501.66;;;2.50;100.00
33795;BME280;51430;52.242;21.118;2022-12-07T04:28:04;99496.79;;;2.51;100.00
33795;BME280;51430;52.242;21.118;2022-12-07T04:30:50;99496.73;;;2.47;100.00
33795;BME280;51430;52.242;21.118;2022-12-07T04:33:37;99499.21;;;2.45;100.00
33795;BME280;51430;52.242;21.118;2022-12-07T04:36:25;99501.19;;;2.47;100.00
33795;BME280;51430;52.242;21.118;2022-12-07T04:39:21;99497.60;;;2.52;100.00
33795;BME280;51430;52.242;21.118;2022-12-07T04:42:09;99493.77;;;2.47;100.00
33795;BME280;51430;52.242;21.118;2022-12-07T04:44:56;99495.20;;;2.49;100.00
33795;BME280;51430;52.242;21.118;2022-12-07T04:47:42;99497.83;;;2.45;100.00
33795;BME280;51430;52.242;21.118;2022-12-07T04:50:29;99495.62;;;2.42;100.00
33795;BME280;51430;52.242;21.118;2022-12-07T04:53:15;99496.21;;;2.50;100.00
33795;BME280;51430;52.242;21.118;2022-12-07T04:56:02;99494.27;;;2.47;100.00
33795;BME280;51430;52.242;21.118;2022-12-07T04:58:49;99492.06;;;2.50;100.00
33795;BME280;51430;52.242;21.118;2022-12-07T05:01:37;99487.39;;;2.47;100.00
33795;BME280;51430;52.242;21.118;2022-12-07T05:04:23;99486.98;;;2.49;100.00
33795;BME280;51430;52.242;21.118;2022-12-07T05:07:10;99483.86;;;2.43;100.00
33795;BME280;51430;52.242;21.118;2022-12-07T05:09:57;99477.80;;;2.38;100.00
33795;BME280;51430;52.242;21.118;2022-12-07T05:12:43;99474.54;;;2.35;100.00
33795;BME280;51430;52.242;21.118;2022-12-07T05:15:30;99471.73;;;2.42;100.00
33795;BME280;51430;52.242;21.118;2022-12-07T05:18:17;99471.83;;;2.40;100.00
33795;BME280;51430;52.242;21.118;2022-12-07T05:21:03;99469.69;;;2.44;100.00
33795;BME280;51430;52.242;21.118;2022-12-07T05:23:50;99468.46;;;2.41;100.00
33795;BME280;51430;52.242;21.118;2022-12-07T05:26:37;99465.61;;;2.43;100.00
33795;BME280;51430;52.242;21.118;2022-12-07T05:29:23;99466.73;;;2.39;100.00
33795;BME280;51430;52.242;21.118;2022-12-07T05:32:09;99470.33;;;2.42;100.00
33795;BME280;51430;52.242;21.118;2022-12-07T05:34:56;99470.94;;;2.34;100.00
33795;BME280;51430;52.242;21.118;2022-12-07T05:37:43;99471.09;;;2.28;100.00
33795;BME280;51430;52.242;21.118;2022-12-07T05:40:30;99471.47;;;2.28;100.00
33795;BME280;51430;52.242;21.118;2022-12-07T05:43:16;99472.23;;;2.27;100.00
33795;BME280;51430;52.242;21.118;2022-12-07T05:46:03;99472.52;;;2.21;100.00
33795;BME280;51430;52.242;21.118;2022-12-07T05:48:49;99479.27;;;2.12;100.00
33795;BME280;51430;52.242;21.118;2022-12-07T05:51:36;99476.50;;;2.12;100.00
33795;BME280;51430;52.242;21.118;2022-12-07T05:54:23;99481.12;;;2.19;100.00
33795;BME280;51430;52.242;21.118;2022-12-07T05:57:09;99483.20;;;2.18;100.00
33795;BME280;51430;52.242;21.118;2022-12-07T05:59:56;99479.93;;;2.12;100.00
33795;BME280;51430;52.242;21.118;2022-12-07T06:02:42;99480.11;;;2.06;100.00
33795;BME280;51430;52.242;21.118;2022-12-07T06:05:29;99480.09;;;2.06;100.00
33795;BME280;51430;52.242;21.118;2022-12-07T06:08:15;99479.59;;;2.03;100.00
33795;BME280;51430;52.242;21.118;2022-12-07T06:11:02;99477.75;;;1.96;100.00
33795;BME280;51430;52.242;21.118;2022-12-07T06:14:07;99478.62;;;1.95;100.00
33795;BME280;51430;52.242;21.118;2022-12-07T06:16:54;99476.05;;;1.95;100.00
33795;BME280;51430;52.242;21.118;2022-12-07T06:19:41;99477.30;;;2.00;100.00
33795;BME280;51430;52.242;21.118;2022-12-07T06:22:28;99478.86;;;2.00;100.00
33795;BME280;51430;52.242;21.118;2022-12-07T06:25:14;99477.48;;;1.94;100.00
33795;BME280;51430;52.242;21.118;2022-12-07T06:28:01;99473.42;;;1.90;100.00
33795;BME280;51430;52.242;21.118;2022-12-07T06:30:47;99473.11;;;1.89;100.00
33795;BME280;51430;52.242;21.118;2022-12-07T06:33:34;99471.89;;;1.87;100.00
33795;BME280;51430;52.242;21.118;2022-12-07T06:36:20;99471.62;;;1.73;100.00
33795;BME280;51430;52.242;21.118;2022-12-07T06:39:12;99471.31;;;1.75;100.00
33795;BME280;51430;52.242;21.118;2022-12-07T06:41:59;99469.21;;;1.73;100.00
33795;BME280;51430;52.242;21.118;2022-12-07T06:44:46;99468.58;;;1.78;100.00
33795;BME280;51430;52.242;21.118;2022-12-07T06:47:32;99469.36;;;1.76;100.00
33795;BME280;51430;52.242;21.118;2022-12-07T06:50:36;99467.02;;;1.78;100.00
33795;BME280;51430;52.242;21.118;2022-12-07T06:53:23;99466.06;;;1.77;100.00
33795;BME280;51430;52.242;21.118;2022-12-07T06:56:09;99468.41;;;1.75;100.00
33795;BME280;51430;52.242;21.118;2022-12-07T06:58:57;99469.56;;;1.66;100.00
33795;BME280;51430;52.242;21.118;2022-12-07T07:01:44;99468.35;;;1.70;100.00
33795;BME280;51430;52.242;21.118;2022-12-07T07:04:31;99465.79;;;1.76;100.00
33795;BME280;51430;52.242;21.118;2022-12-07T07:07:17;99470.73;;;1.80;100.00
33795;BME280;51430;52.242;21.118;2022-12-07T07:10:04;99467.31;;;1.73;100.00
33795;BME280;51430;52.242;21.118;2022-12-07T07:12:54;99472.85;;;1.72;100.00
33795;BME280;51430;52.242;21.118;2022-12-07T07:15:43;99473.44;;;1.68;100.00
33795;BME280;51430;52.242;21.118;2022-12-07T07:18:29;99468.04;;;1.73;100.00
33795;BME280;51430;52.242;21.118;2022-12-07T07:21:18;99469.73;;;1.79;100.00
33795;BME280;51430;52.242;21.118;2022-12-07T07:24:07;99467.14;;;1.82;100.00
33795;BME280;51430;52.242;21.118;2022-12-07T07:26:54;99466.75;;;1.86;100.00
33795;BME280;51430;52.242;21.118;2022-12-07T07:29:40;99467.06;;;1.84;100.00
33795;BME280;51430;52.242;21.118;2022-12-07T07:32:27;99466.06;;;1.80;100.00
33795;BME280;51430;52.242;21.118;2022-12-07T07:35:17;99468.02;;;1.88;100.00
33795;BME280;51430;52.242;21.118;2022-12-07T07:38:05;99470.80;;;1.85;100.00
33795;BME280;51430;52.242;21.118;2022-12-07T07:40:52;99471.98;;;1.88;100.00
33795;BME280;51430;52.242;21.118;2022-12-07T07:43:39;99468.33;;;1.92;100.00
33795;BME280;51430;52.242;21.118;2022-12-07T07:46:25;99469.42;;;1.91;100.00
33795;BME280;51430;52.242;21.118;2022-12-07T07:49:12;99466.27;;;1.92;100.00
33795;BME280;51430;52.242;21.118;2022-12-07T07:51:59;99470.30;;;1.99;100.00
33795;BME280;51430;52.242;21.118;2022-12-07T07:54:46;99470.80;;;2.03;100.00
33795;BME280;51430;52.242;21.118;2022-12-07T07:57:33;99467.04;;;2.06;100.00
33795;BME280;51430;52.242;21.118;2022-12-07T08:00:19;99468.98;;;2.08;100.00
33795;BME280;51430;52.242;21.118;2022-12-07T08:03:06;99470.47;;;2.09;100.00
33795;BME280;51430;52.242;21.118;2022-12-07T08:05:53;99470.48;;;2.09;100.00
33795;BME280;51430;52.242;21.118;2022-12-07T08:08:40;99467.60;;;2.14;100.00
33795;BME280;51430;52.242;21.118;2022-12-07T08:11:28;99474.06;;;2.16;100.00
33795;BME280;51430;52.242;21.118;2022-12-07T08:14:14;99471.02;;;2.18;100.00
33795;BME280;51430;52.242;21.118;2022-12-07T08:17:01;99478.39;;;2.30;100.00
33795;BME280;51430;52.242;21.118;2022-12-07T08:19:50;99476.89;;;2.26;100.00
33795;BME280;51430;52.242;21.118;2022-12-07T08:22:36;99475.02;;;2.36;100.00
33795;BME280;51430;52.242;21.118;2022-12-07T08:25:22;99477.52;;;2.40;100.00
33795;BME280;51430;52.242;21.118;2022-12-07T08:28:09;99478.73;;;2.37;100.00
33795;BME280;51430;52.242;21.118;2022-12-07T08:31:00;99478.39;;;2.36;100.00
33795;BME280;51430;52.242;21.118;2022-12-07T08:33:48;99480.53;;;2.41;100.00
33795;BME280;51430;52.242;21.118;2022-12-07T08:36:36;99479.44;;;2.45;100.00
33795;BME280;51430;52.242;21.118;2022-12-07T08:39:23;99481.30;;;2.49;100.00
33795;BME280;51430;52.242;21.118;2022-12-07T08:42:18;99489.34;;;2.46;100.00
33795;BME280;51430;52.242;21.118;2022-12-07T08:45:10;99485.20;;;2.44;100.00
33795;BME280;51430;52.242;21.118;2022-12-07T08:48:10;99482.33;;;2.43;100.00
33795;BME280;51430;52.242;21.118;2022-12-07T08:50:58;99482.86;;;2.54;100.00
33795;BME280;51430;52.242;21.118;2022-12-07T08:53:45;99478.13;;;2.64;100.00
33795;BME280;51430;52.242;21.118;2022-12-07T08:56:32;99479.02;;;2.70;100.00
33795;BME280;51430;52.242;21.118;2022-12-07T08:59:19;99477.87;;;2.75;100.00
33795;BME280;51430;52.242;21.118;2022-12-07T09:02:06;99480.55;;;2.85;100.00
33795;BME280;51430;52.242;21.118;2022-12-07T09:07:24;99481.92;;;2.91;100.00
33795;BME280;51430;52.242;21.118;2022-12-07T09:10:11;99473.29;;;2.85;100.00
33795;BME280;51430;52.242;21.118;2022-12-07T09:12:58;99474.02;;;2.94;100.00
33795;BME280;51430;52.242;21.118;2022-12-07T09:15:47;99471.73;;;2.92;100.00
33795;BME280;51430;52.242;21.118;2022-12-07T09:18:36;99476.90;;;3.00;100.00
33795;BME280;51430;52.242;21.118;2022-12-07T09:21:22;99475.31;;;3.06;100.00
33795;BME280;51430;52.242;21.118;2022-12-07T09:24:09;99469.44;;;3.12;100.00
33795;BME280;51430;52.242;21.118;2022-12-07T09:26:55;99463.34;;;3.16;100.00
33795;BME280;51430;52.242;21.118;2022-12-07T09:29:44;99460.92;;;3.28;100.00
33795;BME280;51430;52.242;21.118;2022-12-07T09:32:31;99464.70;;;3.31;99.76
33795;BME280;51430;52.242;21.118;2022-12-07T09:35:17;99466.77;;;3.31;99.25
33795;BME280;51430;52.242;21.118;2022-12-07T09:38:04;99461.57;;;3.31;98.25
33795;BME280;51430;52.242;21.118;2022-12-07T09:40:54;99458.00;;;3.42;98.22
33795;BME280;51430;52.242;21.118;2022-12-07T09:43:42;99452.74;;;3.43;97.66
33795;BME280;51430;52.242;21.118;2022-12-07T09:46:34;99452.98;;;3.45;97.53
33795;BME280;51430;52.242;21.118;2022-12-07T09:49:27;99454.41;;;3.52;97.47
33795;BME280;51430;52.242;21.118;2022-12-07T09:52:25;99460.55;;;3.53;96.58
33795;BME280;51430;52.242;21.118;2022-12-07T09:55:16;99454.42;;;3.58;96.65
33795;BME280;51430;52.242;21.118;2022-12-07T09:58:16;99455.77;;;3.64;96.38
33795;BME280;51430;52.242;21.118;2022-12-07T10:01:12;99454.00;;;3.67;96.34
33795;BME280;51430;52.242;21.118;2022-12-07T10:04:09;99457.11;;;3.70;96.44
33795;BME280;51430;52.242;21.118;2022-12-07T10:06:59;99454.55;;;3.61;94.51
33795;BME280;51430;52.242;21.118;2022-12-07T10:09:46;99460.02;;;3.54;94.27
33795;BME280;51430;52.242;21.118;2022-12-07T10:12:53;99458.00;;;3.61;94.82
33795;BME280;51430;52.242;21.118;2022-12-07T10:18:40;99445.62;;;3.66;94.07
33795;BME280;51430;52.242;21.118;2022-12-07T10:21:31;99443.41;;;3.74;93.93
33795;BME280;51430;52.242;21.118;2022-12-07T10:24:17;99437.09;;;3.84;93.80
33795;BME280;51430;52.242;21.118;2022-12-07T10:27:21;99439.77;;;3.93;94.07
33795;BME280;51430;52.242;21.118;2022-12-07T10:30:14;99445.35;;;4.00;94.08
33795;BME280;51430;52.242;21.118;2022-12-07T10:33:01;99446.16;;;3.96;93.10
33795;BME280;51430;52.242;21.118;2022-12-07T10:35:48;99444.30;;;4.00;92.59
33795;BME280;51430;52.242;21.118;2022-12-07T10:38:52;99440.51;;;3.85;90.33
33795;BME280;51430;52.242;21.118;2022-12-07T10:42:02;99440.77;;;3.78;90.88
33795;BME280;51430;52.242;21.118;2022-12-07T10:45:13;99441.98;;;3.72;91.17
33795;BME280;51430;52.242;21.118;2022-12-07T10:55:06;99445.58;;;3.80;90.40
33795;BME280;51430;52.242;21.118;2022-12-07T11:01:29;99440.23;;;3.94;91.48
33795;BME280;51430;52.242;21.118;2022-12-07T11:10:48;99439.95;;;3.95;90.37
33795;BME280;51430;52.242;21.118;2022-12-07T11:22:54;99433.11;;;3.81;90.12
33795;BME280;51430;52.242;21.118;2022-12-07T11:38:41;99435.98;;;3.88;91.15
33795;BME280;51430;52.242;21.118;2022-12-07T11:41:29;99435.02;;;3.84;91.68
33795;BME280;51430;52.242;21.118;2022-12-07T11:44:42;99435.16;;;3.82;91.56
33795;BME280;51430;52.242;21.118;2022-12-07T11:47:47;99426.79;;;3.94;91.38
33795;BME280;51430;52.242;21.118;2022-12-07T11:50:42;99422.27;;;3.97;91.12
33795;BME280;51430;52.242;21.118;2022-12-07T11:53:38;99422.58;;;4.06;91.06
33795;BME280;51430;52.242;21.118;2022-12-07T11:56:27;99422.67;;;4.02;90.66
33795;BME280;51430;52.242;21.118;2022-12-07T11:59:23;99421.48;;;4.01;90.71
33795;BME280;51430;52.242;21.118;2022-12-07T12:02:20;99425.24;;;4.07;90.68
33795;BME280;51430;52.242;21.118;2022-12-07T12:05:22;99422.25;;;4.14;90.47
33795;BME280;51430;52.242;21.118;2022-12-07T12:15:58;99418.51;;;4.18;89.89
33795;BME280;51430;52.242;21.118;2022-12-07T12:22:18;99399.09;;;4.03;90.02
33795;BME280;51430;52.242;21.118;2022-12-07T12:25:13;99396.92;;;4.06;89.38
33795;BME280;51430;52.242;21.118;2022-12-07T12:28:02;99397.55;;;3.98;90.57
33795;BME280;51430;52.242;21.118;2022-12-07T12:31:08;99402.94;;;3.84;91.81
33795;BME280;51430;52.242;21.118;2022-12-07T12:34:01;99404.30;;;3.68;93.33
33795;BME280;51430;52.242;21.118;2022-12-07T12:36:48;99405.07;;;3.59;94.58
33795;BME280;51430;52.242;21.118;2022-12-07T12:43:02;99396.30;;;3.39;95.56
33795;BME280;51430;52.242;21.118;2022-12-07T12:55:12;99389.77;;;3.42;96.95
33795;BME280;51430;52.242;21.118;2022-12-07T13:04:30;99387.71;;;3.42;96.43
33795;BME280;51430;52.242;21.118;2022-12-07T13:10:42;99384.02;;;3.43;96.14
33795;BME280;51430;52.242;21.118;2022-12-07T13:13:32;99383.30;;;3.46;95.37
33795;BME280;51430;52.242;21.118;2022-12-07T13:25:27;99382.46;;;3.46;94.11
33795;BME280;51430;52.242;21.118;2022-12-07T13:28:17;99384.98;;;3.50;94.16
33795;BME280;51430;52.242;21.118;2022-12-07T13:31:13;99385.52;;;3.52;94.28
33795;BME280;51430;52.242;21.118;2022-12-07T13:34:03;99381.61;;;3.43;93.40
33795;BME280;51430;52.242;21.118;2022-12-07T13:36:51;99386.25;;;3.40;93.65
33795;BME280;51430;52.242;21.118;2022-12-07T13:39:52;99383.93;;;3.36;93.27
33795;BME280;51430;52.242;21.118;2022-12-07T13:42:40;99380.08;;;3.32;94.29
33795;BME280;51430;52.242;21.118;2022-12-07T13:45:31;99384.91;;;3.34;94.79
33795;BME280;51430;52.242;21.118;2022-12-07T13:48:47;99387.13;;;3.29;94.81
33795;BME280;51430;52.242;21.118;2022-12-07T13:51:53;99390.32;;;3.28;94.71
33795;BME280;51430;52.242;21.118;2022-12-07T13:57:56;99390.63;;;3.23;95.12
33795;BME280;51430;52.242;21.118;2022-12-07T14:00:43;99389.42;;;3.26;95.05
33795;BME280;51430;52.242;21.118;2022-12-07T14:03:33;99395.91;;;3.13;95.80
33795;BME280;51430;52.242;21.118;2022-12-07T14:06:26;99395.88;;;3.10;96.40
33795;BME280;51430;52.242;21.118;2022-12-07T14:09:23;99393.68;;;3.07;96.57
33795;BME280;51430;52.242;21.118;2022-12-07T14:12:12;99393.83;;;2.99;97.00
33795;BME280;51430;52.242;21.118;2022-12-07T14:15:02;99390.85;;;2.97;97.27
33795;BME280;51430;52.242;21.118;2022-12-07T14:17:54;99391.84;;;3.01;97.09
33795;BME280;51430;52.242;21.118;2022-12-07T14:20:41;99392.86;;;2.89;96.83
33795;BME280;51430;52.242;21.118;2022-12-07T14:23:28;99393.33;;;2.90;96.76
33795;BME280;51430;52.242;21.118;2022-12-07T14:26:19;99391.37;;;2.85;97.03
33795;BME280;51430;52.242;21.118;2022-12-07T14:29:38;99394.23;;;2.81;96.75
33795;BME280;51430;52.242;21.118;2022-12-07T14:32:27;99401.27;;;2.73;97.13
33795;BME280;51430;52.242;21.118;2022-12-07T14:35:17;99398.02;;;2.75;96.59
33795;BME280;51430;52.242;21.118;2022-12-07T14:38:04;99393.46;;;2.77;96.37
33795;BME280;51430;52.242;21.118;2022-12-07T14:40:52;99396.05;;;2.73;96.73
33795;BME280;51430;52.242;21.118;2022-12-07T14:43:39;99394.31;;;2.68;96.98
33795;BME280;51430;52.242;21.118;2022-12-07T14:46:46;99393.25;;;2.63;97.15
33795;BME280;51430;52.242;21.118;2022-12-07T14:49:33;99394.30;;;2.71;96.47
33795;BME280;51430;52.242;21.118;2022-12-07T14:52:25;99397.30;;;2.70;96.44
33795;BME280;51430;52.242;21.118;2022-12-07T14:55:33;99397.40;;;2.65;96.89
33795;BME280;51430;52.242;21.118;2022-12-07T14:58:20;99394.98;;;2.65;96.92
33795;BME280;51430;52.242;21.118;2022-12-07T15:01:06;99394.77;;;2.63;97.06
33795;BME280;51430;52.242;21.118;2022-12-07T15:03:58;99396.23;;;2.59;97.51
33795;BME280;51430;52.242;21.118;2022-12-07T15:07:00;99399.65;;;2.56;97.74
33795;BME280;51430;52.242;21.118;2022-12-07T15:11:27;99393.34;;;2.44;98.18
33795;BME280;51430;52.242;21.118;2022-12-07T15:15:24;99388.48;;;2.24;98.47
33795;BME280;51430;52.242;21.118;2022-12-07T15:19:26;99383.80;;;2.16;99.56
33795;BME280;51430;52.242;21.118;2022-12-07T15:23:27;99386.25;;;2.06;100.00
33795;BME280;51430;52.242;21.118;2022-12-07T15:27:25;99377.77;;;1.92;100.00
33795;BME280;51430;52.242;21.118;2022-12-07T15:41:01;99373.80;;;2.10;100.00
33795;BME280;51430;52.242;21.118;2022-12-07T15:44:19;99369.66;;;2.11;100.00
33795;BME280;51430;52.242;21.118;2022-12-07T16:16:23;99367.64;;;2.42;100.00
33795;BME280;51430;52.242;21.118;2022-12-07T16:19:40;99363.77;;;2.29;100.00
33795;BME280;51430;52.242;21.118;2022-12-07T16:23:09;99362.30;;;2.25;100.00
33795;BME280;51430;52.242;21.118;2022-12-07T16:37:02;99371.45;;;2.62;100.00
33795;BME280;51430;52.242;21.118;2022-12-07T16:39:50;99368.20;;;2.56;99.94
33795;BME280;51430;52.242;21.118;2022-12-07T16:42:37;99363.98;;;2.60;99.98
33795;BME280;51430;52.242;21.118;2022-12-07T16:45:23;99369.30;;;2.61;99.97
33795;BME280;51430;52.242;21.118;2022-12-07T16:48:10;99367.72;;;2.58;99.90
33795;BME280;51430;52.242;21.118;2022-12-07T16:50:57;99366.17;;;2.58;99.83
33795;BME280;51430;52.242;21.118;2022-12-07T16:53:44;99362.69;;;2.51;99.92
33795;BME280;51430;52.242;21.118;2022-12-07T16:56:33;99360.75;;;2.57;100.00
33795;BME280;51430;52.242;21.118;2022-12-07T16:59:20;99361.02;;;2.64;99.96
33795;BME280;51430;52.242;21.118;2022-12-07T17:02:10;99360.48;;;2.67;99.64
33795;BME280;51430;52.242;21.118;2022-12-07T17:04:57;99352.43;;;2.66;99.38
33795;BME280;51430;52.242;21.118;2022-12-07T17:07:44;99346.71;;;2.67;99.37
33795;BME280;51430;52.242;21.118;2022-12-07T17:10:33;99346.21;;;2.67;99.28
33795;BME280;51430;52.242;21.118;2022-12-07T17:13:19;99351.98;;;2.71;99.08
33795;BME280;51430;52.242;21.118;2022-12-07T17:16:25;99354.42;;;2.70;99.22
33795;BME280;51430;52.242;21.118;2022-12-07T17:19:15;99353.15;;;2.72;98.83
33795;BME280;51430;52.242;21.118;2022-12-07T17:22:02;99352.97;;;2.75;98.47
33795;BME280;51430;52.242;21.118;2022-12-07T17:24:49;99348.19;;;2.77;97.93
33795;BME280;51430;52.242;21.118;2022-12-07T17:27:36;99347.55;;;2.73;97.88
33795;BME280;51430;52.242;21.118;2022-12-07T17:30:23;99351.23;;;2.77;97.60
33795;BME280;51430;52.242;21.118;2022-12-07T17:33:10;99349.29;;;2.84;97.23
33795;BME280;51430;52.242;21.118;2022-12-07T17:35:59;99349.08;;;2.82;97.17
33795;BME280;51430;52.242;21.118;2022-12-07T17:38:46;99354.76;;;2.88;96.96
33795;BME280;51430;52.242;21.118;2022-12-07T17:41:33;99352.21;;;2.79;97.08
33795;BME280;51430;52.242;21.118;2022-12-07T17:44:39;99356.02;;;2.78;96.98
33795;BME280;51430;52.242;21.118;2022-12-07T17:47:26;99354.20;;;2.80;96.95
33795;BME280;51430;52.242;21.118;2022-12-07T17:50:13;99354.33;;;2.84;96.82
33795;BME280;51430;52.242;21.118;2022-12-07T17:52:59;99350.98;;;2.88;96.77
33795;BME280;51430;52.242;21.118;2022-12-07T17:55:59;99357.29;;;2.91;96.43